Time;durP1;ratioP1;P1;durP2;ratioP2;P2;SDS_P1;SDS_P2;PMS_P1;PMS_P2;Temp;Humidity;BMP_temperature;BMP_pressure;BME280_temperature;BME280_humidity;BME280_pressure;Samples;Min_cycle;Max_cycle;Signal;HPM_P1;HPM_P2
2021/04/28 00:00:46;;;;;;;6.72;5.55;;;;;;;1.49;74.21;91919.97;2097493;28;20044;-85
2021/04/28 00:01:47;;;;;;;7.53;5.28;;;;;;;1.55;74.18;91924.81;2097984;28;20021;-86
2021/04/28 00:02:48;;;;;;;6.32;5.18;;;;;;;1.39;75.22;91925.28;2106168;28;20859;-85
2021/04/28 00:03:49;;;;;;;7.82;4.70;;;;;;;1.45;74.90;91919.25;2097616;28;20077;-85
2021/04/28 00:04:49;;;;;;;7.38;5.82;;;;;;;1.44;74.28;91922.97;2106273;27;20074;-85
2021/04/28 00:05:50;;;;;;;6.15;5.15;;;;;;;1.43;74.91;91921.50;2114142;28;20035;-85
2021/04/28 00:06:51;;;;;;;6.60;5.60;;;;;;;1.40;74.97;91922.25;2090064;28;20029;-85
2021/04/28 00:07:52;;;;;;;6.45;5.40;;;;;;;1.40;74.78;91911.72;2114231;28;20027;-85
2021/04/28 00:08:53;;;;;;;9.50;6.20;;;;;;;1.40;74.81;91918.88;2101651;28;20480;-86
2021/04/28 00:09:54;;;;;;;7.30;5.30;;;;;;;1.31;75.15;91921.94;2091857;28;20032;-85
2021/04/28 00:10:54;;;;;;;6.38;5.10;;;;;;;1.31;75.51;91919.31;2103562;28;20023;-86
2021/04/28 00:11:56;;;;;;;7.50;5.25;;;;;;;1.39;75.03;91920.03;2103595;28;20047;-86
2021/04/28 00:12:57;;;;;;;9.07;5.78;;;;;;;1.41;74.70;91918.50;2095237;28;20020;-85
2021/04/28 00:13:58;;;;;;;8.02;5.55;;;;;;;1.41;74.83;91917.75;2095007;28;20511;-85
2021/04/28 00:14:58;;;;;;;7.25;5.40;;;;;;;1.39;74.43;91912.88;2101673;28;20111;-85
2021/04/28 00:16:00;;;;;;;8.02;5.25;;;;;;;1.30;75.56;91912.56;2104193;28;20024;-84
2021/04/28 00:17:00;;;;;;;7.55;5.60;;;;;;;1.23;76.10;91917.88;2097477;28;20640;-85
2021/04/28 00:18:01;;;;;;;7.05;5.43;;;;;;;1.28;74.36;91919.38;2108407;28;20016;-85
2021/04/28 00:19:03;;;;;;;11.20;5.95;;;;;;;1.31;74.60;91915.94;2105787;28;20034;-85
2021/04/28 00:20:07;;;;;;;6.85;5.07;;;;;;;1.40;74.68;91909.09;2094669;28;20067;-85
2021/04/28 00:21:09;;;;;;;8.55;5.38;;;;;;;1.34;74.64;91912.53;2093593;28;20821;-86
2021/04/28 00:22:10;;;;;;;6.40;5.80;;;;;;;1.26;74.57;91903.94;2103447;28;20107;-86
2021/04/28 00:23:11;;;;;;;7.50;5.53;;;;;;;1.35;75.38;91908.78;2108998;28;20376;-84
2021/04/28 00:24:12;;;;;;;7.95;5.72;;;;;;;1.25;75.77;91905.06;2101421;28;20598;-85
2021/04/28 00:25:17;;;;;;;7.72;5.25;;;;;;;1.22;75.19;91903.22;2106097;28;20081;-86
2021/04/28 00:26:17;;;;;;;7.70;5.20;;;;;;;1.18;75.99;91907.75;2106395;28;20054;-85
2021/04/28 00:27:18;;;;;;;6.45;5.03;;;;;;;1.20;75.30;91903.59;2097643;28;20474;-85
2021/04/28 00:28:19;;;;;;;7.88;5.80;;;;;;;1.15;75.61;91911.16;2089329;28;20036;-85
2021/04/28 00:29:20;;;;;;;8.60;5.25;;;;;;;1.13;75.77;91910.78;2097952;28;20095;-84
2021/04/28 00:30:20;;;;;;;8.32;5.80;;;;;;;1.11;75.84;91905.19;2097745;28;20603;-85
2021/04/28 00:31:21;;;;;;;6.22;5.22;;;;;;;1.08;76.28;91911.19;2089664;28;20127;-85
2021/04/28 00:32:22;;;;;;;7.30;5.32;;;;;;;1.12;75.90;91904.78;2097573;28;20028;-85
2021/04/28 00:33:22;;;;;;;7.63;5.50;;;;;;;1.16;75.93;91905.50;2102368;28;20111;-86
2021/04/28 00:34:23;;;;;;;6.85;5.38;;;;;;;1.17;76.17;91903.63;2093141;28;20413;-85
2021/04/28 00:35:25;;;;;;;8.85;5.63;;;;;;;1.16;75.88;91904.75;2109144;28;20020;-85
2021/04/28 00:36:25;;;;;;;6.93;5.45;;;;;;;1.11;75.81;91910.44;2119494;27;20504;-83
2021/04/28 00:37:26;;;;;;;8.45;6.05;;;;;;;1.14;76.37;91904.38;2109125;28;20028;-85
2021/04/28 00:38:27;;;;;;;7.28;5.85;;;;;;;1.12;75.26;91906.66;2111381;28;20043;-84
2021/04/28 00:39:27;;;;;;;6.80;5.43;;;;;;;1.11;75.68;91899.91;2100488;28;20073;-85
2021/04/28 00:40:31;;;;;;;9.15;5.82;;;;;;;1.15;75.82;91890.13;2094467;28;20020;-85
2021/04/28 00:41:32;;;;;;;9.35;5.93;;;;;;;1.07;76.46;91902.56;2095920;28;20454;-85
2021/04/28 00:42:33;;;;;;;9.20;5.63;;;;;;;1.08;75.85;91892.78;2091302;28;20071;-85
2021/04/28 00:43:37;;;;;;;7.13;5.63;;;;;;;1.12;76.29;91901.41;2099719;28;20093;-85
2021/04/28 00:44:38;;;;;;;8.02;5.53;;;;;;;1.11;76.21;91900.66;2100317;28;20103;-85
2021/04/28 00:45:39;;;;;;;9.25;6.10;;;;;;;1.05;77.54;91893.53;2101327;28;20028;-85
2021/04/28 00:46:40;;;;;;;7.65;5.97;;;;;;;1.08;76.70;91893.53;2099871;28;20024;-85
2021/04/28 00:47:41;;;;;;;7.38;5.72;;;;;;;1.10;76.34;91898.41;2101373;28;20027;-84
2021/04/28 00:48:42;;;;;;;7.05;6.07;;;;;;;1.08;76.06;91895.41;2112240;28;20027;-84
2021/04/28 00:49:43;;;;;;;8.43;5.82;;;;;;;1.06;76.10;91893.19;2112985;28;20019;-85
2021/04/28 00:50:47;;;;;;;7.50;5.55;;;;;;;1.05;75.86;91891.66;2110819;28;20020;-85
2021/04/28 00:51:48;;;;;;;10.43;6.38;;;;;;;1.06;76.52;91889.81;2098506;28;20479;-84
2021/04/28 00:52:50;;;;;;;9.20;5.88;;;;;;;1.10;76.38;91893.13;2093911;28;20028;-84
2021/04/28 00:53:52;;;;;;;8.65;6.18;;;;;;;0.96;76.75;91886.81;2099952;28;20137;-86
2021/04/28 00:54:53;;;;;;;7.18;5.50;;;;;;;1.03;76.68;91885.31;2090184;27;20040;-83
2021/04/28 00:55:57;;;;;;;9.25;5.85;;;;;;;1.07;76.39;91892.03;2104975;28;20024;-83
2021/04/28 00:56:58;;;;;;;8.05;6.15;;;;;;;1.04;75.95;91886.78;2100135;28;20028;-84
2021/04/28 00:58:00;;;;;;;10.75;6.25;;;;;;;1.00;76.99;91884.91;2105631;28;20610;-84
2021/04/28 00:59:01;;;;;;;6.95;5.90;;;;;;;1.06;76.63;91893.19;2104033;28;20032;-84
2021/04/28 01:00:11;;;;;;;9.45;6.15;;;;;;;1.10;76.58;91891.28;2107575;27;20856;-84
2021/04/28 01:01:12;;;;;;;7.22;5.68;;;;;;;1.11;76.56;91884.13;2096794;28;20028;-85
2021/04/28 01:02:13;;;;;;;8.25;6.07;;;;;;;1.07;76.77;91888.66;2092501;28;20025;-86
2021/04/28 01:03:14;;;;;;;11.88;5.60;;;;;;;1.02;76.87;91883.81;2102141;28;20025;-85
2021/04/28 01:04:16;;;;;;;8.30;5.93;;;;;;;1.02;77.12;91892.44;2100566;27;20055;-84
2021/04/28 01:05:17;;;;;;;6.53;5.47;;;;;;;1.05;76.91;91888.28;2101737;28;20090;-83
2021/04/28 01:06:19;;;;;;;7.22;6.13;;;;;;;1.04;77.18;91889.41;2080935;28;20026;-84
2021/04/28 01:07:21;;;;;;;11.57;6.18;;;;;;;1.07;77.09;91888.66;2094791;28;20516;-82
2021/04/28 01:08:22;;;;;;;7.65;5.97;;;;;;;1.01;77.61;91885.69;2098393;28;20035;-84
2021/04/28 01:09:24;;;;;;;7.28;5.90;;;;;;;0.90;78.02;91888.38;2100922;28;20047;-86
2021/04/28 01:10:29;;;;;;;8.98;6.22;;;;;;;0.83;78.89;91892.91;2090966;28;20876;-86
2021/04/28 01:11:31;;;;;;;6.72;5.40;;;;;;;0.88;78.41;91884.63;2092121;28;20067;-83
2021/04/28 01:12:32;;;;;;;7.28;5.65;;;;;;;1.03;77.17;91883.41;2098616;28;20059;-85
2021/04/28 01:13:34;;;;;;;10.55;5.90;;;;;;;0.84;77.75;91889.19;2097291;28;20024;-84
2021/04/28 01:14:37;;;;;;;9.25;6.00;;;;;;;0.89;77.32;91886.88;2107613;28;20028;-84
2021/04/28 01:15:38;;;;;;;9.63;6.55;;;;;;;0.90;77.66;91885.75;2110827;28;20018;-83
2021/04/28 01:16:39;;;;;;;9.20;5.65;;;;;;;0.93;77.45;91884.97;2098490;28;20028;-84
2021/04/28 01:17:40;;;;;;;9.15;5.93;;;;;;;0.84;77.64;91884.66;2097213;28;20035;-85
2021/04/28 01:18:41;;;;;;;7.53;5.75;;;;;;;0.88;77.87;91879.34;2104478;28;20439;-84
2021/04/28 01:19:41;;;;;;;7.18;5.95;;;;;;;0.80;78.09;91878.66;2106346;28;20020;-85
2021/04/28 01:20:42;;;;;;;9.68;5.47;;;;;;;0.84;77.82;91874.13;2104105;28;20016;-83
2021/04/28 01:21:43;;;;;;;8.52;6.15;;;;;;;0.85;77.84;91877.50;2095791;28;20103;-84
2021/04/28 01:22:45;;;;;;;8.65;6.32;;;;;;;0.79;78.13;91879.81;2098023;28;20024;-85
2021/04/28 01:23:46;;;;;;;6.70;5.50;;;;;;;0.74;78.47;91886.19;2111687;28;20023;-83
2021/04/28 01:24:49;;;;;;;9.10;5.80;;;;;;;0.72;78.47;91891.09;2112998;28;20064;-83
2021/04/28 01:25:50;;;;;;;9.55;6.22;;;;;;;0.79;77.70;91881.66;2102568;27;20389;-85
2021/04/28 01:26:54;;;;;;;6.70;6.10;;;;;;;0.75;77.77;91884.34;2105847;28;20146;-83
2021/04/28 01:28:15;;;;;;;7.88;5.63;;;;;;;0.72;78.37;91887.72;2105968;28;20031;-84
2021/04/28 01:29:18;;;;;;;6.88;5.75;;;;;;;0.71;78.42;91883.59;2102089;28;20028;-85
2021/04/28 01:30:20;;;;;;;8.93;5.80;;;;;;;0.72;78.58;91885.84;2097801;28;20031;-85
2021/04/28 01:31:23;;;;;;;9.77;6.75;;;;;;;0.60;78.79;91890.78;2118071;27;20031;-85
2021/04/28 01:32:24;;;;;;;9.27;5.97;;;;;;;0.62;78.26;91886.66;2102485;28;20050;-83
2021/04/28 01:33:28;;;;;;;9.48;6.18;;;;;;;0.58;78.66;91890.44;2105295;28;20020;-86
2021/04/28 01:34:30;;;;;;;8.45;5.97;;;;;;;0.58;79.38;91885.91;2102954;28;20067;-85
2021/04/28 01:35:32;;;;;;;8.32;5.70;;;;;;;0.60;79.00;91877.63;2099632;28;20519;-86
2021/04/28 01:36:37;;;;;;;11.32;6.20;;;;;;;0.53;79.00;91883.69;2090339;28;20024;-86
2021/04/28 01:37:38;;;;;;;9.18;6.40;;;;;;;0.48;79.46;91882.22;2096863;28;20032;-86
2021/04/28 01:38:42;;;;;;;8.73;6.70;;;;;;;0.52;78.85;91882.16;2090225;28;20020;-83
2021/04/28 01:39:43;;;;;;;8.68;6.25;;;;;;;0.50;78.88;91877.31;2104948;28;20123;-83
2021/04/28 01:40:44;;;;;;;7.72;6.00;;;;;;;0.49;79.20;91875.81;2097285;28;20153;-84
2021/04/28 01:41:48;;;;;;;9.13;6.22;;;;;;;0.54;79.06;91873.91;2097164;28;20541;-85
2021/04/28 01:42:51;;;;;;;9.18;6.45;;;;;;;0.47;79.49;91885.94;2105492;28;20032;-84
2021/04/28 01:43:52;;;;;;;7.72;5.90;;;;;;;0.48;79.92;91876.19;2099749;28;20785;-86
2021/04/28 01:44:55;;;;;;;9.00;6.30;;;;;;;0.50;79.76;91879.94;2105574;28;20035;-84
2021/04/28 01:45:56;;;;;;;8.75;5.75;;;;;;;0.47;79.31;91878.06;2105453;28;20043;-83
2021/04/28 01:46:58;;;;;;;7.50;6.35;;;;;;;0.53;80.09;91881.06;2097194;28;20024;-84
2021/04/28 01:48:01;;;;;;;10.00;6.25;;;;;;;0.53;79.06;91875.03;2097312;28;20075;-85
2021/04/28 01:49:03;;;;;;;8.50;6.18;;;;;;;0.50;78.80;91877.31;2097409;28;20424;-86
2021/04/28 01:50:05;;;;;;;8.40;6.60;;;;;;;0.53;78.96;91883.69;2097520;28;20024;-85
2021/04/28 01:51:06;;;;;;;9.38;6.40;;;;;;;0.49;79.87;91881.06;2097202;28;20025;-85
2021/04/28 01:52:07;;;;;;;9.98;6.20;;;;;;;0.55;79.11;91880.66;2099834;28;20024;-85
2021/04/28 01:53:10;;;;;;;9.35;6.85;;;;;;;0.52;79.48;91882.16;2116690;27;20024;-84
2021/04/28 01:54:15;;;;;;;7.85;6.15;;;;;;;0.54;79.58;91887.81;2098583;28;20520;-84
2021/04/28 01:55:18;;;;;;;9.25;5.93;;;;;;;0.52;79.22;91882.16;2088808;28;20028;-84
2021/04/28 01:56:22;;;;;;;9.88;6.22;;;;;;;0.42;79.58;91883.72;2097169;28;20410;-84
2021/04/28 01:57:25;;;;;;;8.73;6.25;;;;;;;0.46;79.67;91879.19;2104776;28;20028;-85
2021/04/28 01:58:28;;;;;;;9.40;6.35;;;;;;;0.41;79.52;91879.59;2105477;28;20503;-85
2021/04/28 01:59:30;;;;;;;7.50;6.30;;;;;;;0.42;80.17;91878.47;2097189;28;20024;-85
2021/04/28 02:00:31;;;;;;;8.52;6.68;;;;;;;0.47;80.04;91875.44;2097920;28;20030;-87
2021/04/28 02:01:32;;;;;;;7.90;5.82;;;;;;;0.49;79.79;91877.69;2096665;28;20023;-85
2021/04/28 02:02:34;;;;;;;8.95;5.80;;;;;;;0.51;80.04;91878.06;2101285;28;20478;-86
2021/04/28 02:03:36;;;;;;;7.78;6.00;;;;;;;0.54;79.72;91881.81;2098815;28;20028;-86
2021/04/28 02:04:38;;;;;;;8.25;5.95;;;;;;;0.50;79.82;91876.56;2097870;28;20135;-87
2021/04/28 02:05:39;;;;;;;9.18;6.13;;;;;;;0.45;79.95;91884.84;2096936;28;20469;-85
2021/04/28 02:06:40;;;;;;;9.10;6.20;;;;;;;0.43;79.92;91882.59;2089629;28;20039;-84
2021/04/28 02:07:42;;;;;;;11.05;7.20;;;;;;;0.40;79.88;91880.75;2104085;28;20390;-84
2021/04/28 02:08:43;;;;;;;9.63;6.28;;;;;;;0.49;80.38;91881.06;2097890;28;20570;-83
2021/04/28 02:09:44;;;;;;;10.32;6.45;;;;;;;0.44;79.90;91885.97;2104653;28;20024;-86
2021/04/28 02:10:47;;;;;;;7.97;6.53;;;;;;;0.50;80.16;91889.72;2089693;28;20120;-84
2021/04/28 02:11:49;;;;;;;10.18;5.68;;;;;;;0.50;80.22;91881.81;2097091;28;20025;-84
2021/04/28 02:12:51;;;;;;;8.55;6.22;;;;;;;0.45;80.31;91884.84;2098910;28;20032;-85
2021/04/28 02:13:52;;;;;;;8.38;6.10;;;;;;;0.44;80.75;91884.09;2097455;28;20029;-86
2021/04/28 02:14:55;;;;;;;7.38;6.07;;;;;;;0.45;80.32;91875.06;2113176;28;20020;-86
2021/04/28 02:15:56;;;;;;;9.63;5.72;;;;;;;0.45;80.58;91876.97;2098081;28;20020;-86
2021/04/28 02:16:59;;;;;;;8.35;6.82;;;;;;;0.41;79.52;91874.34;2091519;28;20048;-85
2021/04/28 02:18:05;;;;;;;8.55;6.53;;;;;;;0.38;80.56;91874.34;2092156;28;20406;-85
2021/04/28 02:19:08;;;;;;;7.85;6.22;;;;;;;0.41;80.30;91878.84;2103049;28;20020;-86
2021/04/28 02:20:14;;;;;;;7.45;5.97;;;;;;;0.45;80.30;91879.59;2084742;28;20083;-86
2021/04/28 02:21:15;;;;;;;7.70;6.60;;;;;;;0.43;80.15;91873.94;2086543;28;20021;-85
2021/04/28 02:22:16;;;;;;;8.10;6.38;;;;;;;0.39;80.53;91879.22;2092003;28;20098;-84
2021/04/28 02:23:17;;;;;;;7.95;6.53;;;;;;;0.38;80.33;91877.72;2097813;28;20071;-84
2021/04/28 02:24:19;;;;;;;7.85;6.15;;;;;;;0.38;80.45;91867.22;2100659;28;20473;-84
2021/04/28 02:25:22;;;;;;;8.20;6.30;;;;;;;0.40;79.80;91872.09;2100965;28;20062;-86
2021/04/28 02:26:23;;;;;;;7.47;6.18;;;;;;;0.33;79.81;91866.88;2097593;28;20048;-84
2021/04/28 02:27:24;;;;;;;7.63;6.20;;;;;;;0.33;80.47;91869.50;2099748;28;20531;-84
2021/04/28 02:28:25;;;;;;;9.65;6.57;;;;;;;0.34;80.44;91877.00;2101773;28;20031;-86
2021/04/28 02:29:26;;;;;;;11.50;7.57;;;;;;;0.38;80.77;91866.47;2105165;28;20024;-85
2021/04/28 02:30:30;;;;;;;7.28;6.28;;;;;;;0.40;80.73;91864.22;2099942;28;20024;-84
2021/04/28 02:31:31;;;;;;;9.30;7.28;;;;;;;0.41;80.74;91866.47;2108141;28;20110;-85
2021/04/28 02:32:31;;;;;;;9.48;6.80;;;;;;;0.42;80.93;91856.69;2091137;28;20421;-87
2021/04/28 02:33:36;;;;;;;9.55;6.70;;;;;;;0.48;80.68;91857.78;2088527;28;20033;-86
2021/04/28 02:34:37;;;;;;;7.50;6.70;;;;;;;0.39;79.86;91852.19;2094832;28;20032;-86
2021/04/28 02:35:40;;;;;;;10.25;6.82;;;;;;;0.33;80.88;91859.72;2090094;28;20104;-87
2021/04/28 02:36:44;;;;;;;9.75;7.35;;;;;;;0.33;80.56;91861.63;2103197;28;20115;-84
2021/04/28 02:37:55;;;;;;;8.27;6.93;;;;;;;0.35;80.23;91856.72;2094456;28;20016;-86
2021/04/28 02:39:11;;;;;;;10.57;6.82;;;;;;;0.41;81.04;91863.09;2091935;28;20025;-83
2021/04/28 02:40:14;;;;;;;8.98;6.50;;;;;;;0.44;81.10;91857.81;2104351;28;20022;-86
2021/04/28 02:41:15;;;;;;;7.10;6.30;;;;;;;0.42;81.49;91854.81;2103922;28;20407;-85
2021/04/28 02:42:16;;;;;;;7.93;6.63;;;;;;;0.45;81.69;91856.69;2093558;28;20044;-86
2021/04/28 02:43:19;;;;;;;10.55;6.70;;;;;;;0.40;81.07;91858.97;2100192;28;20028;-84
2021/04/28 02:44:20;;;;;;;9.70;6.85;;;;;;;0.48;81.01;91863.03;2109191;28;20031;-85
2021/04/28 02:45:24;;;;;;;10.82;6.68;;;;;;;0.32;80.26;91860.13;2100732;28;20401;-84
2021/04/28 02:46:27;;;;;;;8.23;6.72;;;;;;;0.33;80.40;91854.47;2097408;28;20021;-84
2021/04/28 02:47:31;;;;;;;10.55;6.43;;;;;;;0.32;80.54;91849.59;2097405;28;20428;-85
2021/04/28 02:48:33;;;;;;;9.65;6.50;;;;;;;0.35;81.18;91856.72;2097240;28;20032;-85
2021/04/28 02:49:37;;;;;;;9.70;6.35;;;;;;;0.33;81.53;91851.84;2102489;28;20053;-85
2021/04/28 02:50:39;;;;;;;7.63;6.57;;;;;;;0.31;81.40;91856.75;2111150;27;20020;-86
2021/04/28 02:51:40;;;;;;;10.90;7.03;;;;;;;0.33;81.34;91853.72;2105223;28;20423;-84
2021/04/28 02:52:43;;;;;;;11.25;7.30;;;;;;;0.32;81.21;91855.63;2105823;28;20028;-82
2021/04/28 02:53:46;;;;;;;7.05;6.32;;;;;;;0.32;80.99;91852.97;2106775;28;20023;-84
2021/04/28 02:54:48;;;;;;;12.65;6.97;;;;;;;0.38;81.28;91848.81;2097133;28;20503;-83
2021/04/28 02:55:53;;;;;;;8.82;7.13;;;;;;;0.36;80.86;91852.97;2111971;28;20088;-84
2021/04/28 02:56:55;;;;;;;11.15;7.15;;;;;;;0.35;81.34;91854.09;2098865;28;20035;-83
2021/04/28 02:57:56;;;;;;;7.97;7.15;;;;;;;0.35;81.86;91848.81;2097414;28;20470;-83
2021/04/28 02:58:58;;;;;;;10.18;6.85;;;;;;;0.37;81.98;91849.22;2112522;28;20026;-83
2021/04/28 03:00:04;;;;;;;9.55;7.28;;;;;;;0.28;82.44;91851.50;2101283;28;20027;-83
2021/04/28 03:01:08;;;;;;;11.38;7.88;;;;;;;0.24;82.70;91848.88;2111725;28;20032;-83
2021/04/28 03:02:09;;;;;;;7.63;6.85;;;;;;;0.28;82.27;91846.25;2105117;28;20074;-84
2021/04/28 03:03:14;;;;;;;8.73;7.22;;;;;;;0.29;82.32;91856.38;2099777;28;20035;-83
2021/04/28 03:04:18;;;;;;;9.90;6.88;;;;;;;0.32;82.15;91849.59;2111276;28;20036;-83
2021/04/28 03:05:21;;;;;;;8.73;6.88;;;;;;;0.32;82.61;91849.59;2105404;28;20026;-83
2021/04/28 03:06:22;;;;;;;10.38;6.57;;;;;;;0.34;81.85;91844.72;2105605;28;20020;-83
2021/04/28 03:07:22;;;;;;;8.95;6.40;;;;;;;0.30;82.22;91846.59;2105150;28;20024;-81
2021/04/28 03:08:23;;;;;;;8.50;6.72;;;;;;;0.25;82.02;91843.22;2102046;28;20098;-82
2021/04/28 03:09:24;;;;;;;10.15;7.10;;;;;;;0.23;82.29;91842.88;2115041;28;20080;-82
2021/04/28 03:10:25;;;;;;;11.02;6.85;;;;;;;0.28;81.81;91844.38;2106709;28;20034;-82
2021/04/28 03:11:26;;;;;;;8.57;7.13;;;;;;;0.28;82.53;91841.72;2123713;27;20015;-83
2021/04/28 03:12:27;;;;;;;9.10;6.50;;;;;;;0.28;81.40;91839.09;2115039;28;20051;-82
2021/04/28 03:13:28;;;;;;;11.13;7.57;;;;;;;0.20;82.23;91837.63;2098238;28;20469;-82
2021/04/28 03:14:29;;;;;;;9.70;7.10;;;;;;;0.23;81.78;91836.88;2106713;28;20030;-83
2021/04/28 03:15:29;;;;;;;9.82;7.10;;;;;;;0.20;82.53;91838.38;2113629;28;20019;-83
2021/04/28 03:16:32;;;;;;;10.55;6.78;;;;;;;0.28;82.33;91838.38;2106618;28;20043;-82
2021/04/28 03:17:32;;;;;;;8.60;6.68;;;;;;;0.26;81.04;91843.97;2101734;28;20020;-82
2021/04/28 03:18:34;;;;;;;13.63;7.93;;;;;;;0.27;82.70;91840.25;2102335;28;20753;-83
2021/04/28 03:19:36;;;;;;;8.38;7.40;;;;;;;0.27;82.48;91840.25;2106402;28;20449;-84
2021/04/28 03:20:39;;;;;;;8.43;7.05;;;;;;;0.23;82.43;91839.50;2104552;28;20020;-83
2021/04/28 03:21:44;;;;;;;8.75;6.90;;;;;;;0.30;82.85;91838.72;2106927;28;20059;-83
2021/04/28 03:22:46;;;;;;;7.80;6.78;;;;;;;0.31;82.75;91846.22;2091223;28;20476;-83
2021/04/28 03:23:47;;;;;;;7.60;6.90;;;;;;;0.30;82.56;91842.09;2094834;28;20020;-82
2021/04/28 03:24:48;;;;;;;9.40;6.75;;;;;;;0.30;82.35;91836.09;2081758;28;20028;-82
2021/04/28 03:25:49;;;;;;;9.98;6.97;;;;;;;0.29;82.80;91837.97;2098162;28;20084;-82
2021/04/28 03:27:02;;;;;;;9.52;6.93;;;;;;;0.32;83.11;91839.09;2115050;28;20028;-82
2021/04/28 03:28:03;;;;;;;7.35;6.53;;;;;;;0.28;83.84;91830.47;2111672;28;20106;-82
2021/04/28 03:29:04;;;;;;;10.00;7.10;;;;;;;0.29;82.94;91837.22;2098041;28;20025;-83
2021/04/28 03:30:07;;;;;;;10.65;7.45;;;;;;;0.28;82.56;91830.47;2098183;28;20047;-82
2021/04/28 03:31:07;;;;;;;9.43;7.32;;;;;;;0.24;82.12;91833.13;2089940;28;20429;-82
2021/04/28 03:32:09;;;;;;;9.23;7.57;;;;;;;0.33;82.40;91837.97;2094173;28;20029;-82
2021/04/28 03:33:09;;;;;;;10.05;7.40;;;;;;;0.30;81.67;91839.47;2103757;28;20024;-83
2021/04/28 03:34:11;;;;;;;8.13;7.00;;;;;;;0.30;82.30;91838.72;2114915;28;20035;-83
2021/04/28 03:35:12;;;;;;;8.60;7.30;;;;;;;0.28;81.90;91841.72;2103504;28;20109;-82
2021/04/28 03:36:13;;;;;;;8.63;7.07;;;;;;;0.27;82.57;91835.00;2104193;28;20399;-82
2021/04/28 03:37:14;;;;;;;12.05;7.93;;;;;;;0.30;82.56;91839.47;2103100;28;20031;-82
2021/04/28 03:38:16;;;;;;;8.20;6.78;;;;;;;0.28;82.72;91841.00;2101387;28;20043;-82
2021/04/28 03:39:17;;;;;;;8.60;7.30;;;;;;;0.18;83.23;91843.28;2094589;28;20021;-83
2021/04/28 03:40:18;;;;;;;8.88;7.28;;;;;;;0.24;82.80;91841.75;2086925;28;20035;-84
2021/04/28 03:41:19;;;;;;;9.18;7.32;;;;;;;0.22;82.31;91830.88;2093721;28;20104;-83
2021/04/28 03:42:22;;;;;;;7.82;6.95;;;;;;;0.16;82.76;91848.16;2097676;28;20848;-84
2021/04/28 03:43:23;;;;;;;9.38;7.53;;;;;;;0.23;82.87;91842.88;2106468;28;20069;-84
2021/04/28 03:44:25;;;;;;;8.65;7.30;;;;;;;0.25;83.07;91842.50;2101208;28;20107;-83
2021/04/28 03:45:25;;;;;;;10.63;7.13;;;;;;;0.20;82.21;91845.50;2096085;28;20020;-83
2021/04/28 03:46:26;;;;;;;9.65;7.43;;;;;;;0.17;82.79;91843.66;2102706;28;20073;-83
2021/04/28 03:47:27;;;;;;;9.80;7.35;;;;;;;0.13;83.24;91842.91;2107117;28;20125;-83
2021/04/28 03:48:27;;;;;;;8.68;7.13;;;;;;;0.14;82.92;91844.44;2107020;28;20475;-83
2021/04/28 03:49:28;;;;;;;9.57;6.72;;;;;;;0.16;83.17;91845.53;2111080;28;20114;-83
2021/04/28 03:50:28;;;;;;;9.88;7.35;;;;;;;0.14;83.35;91845.16;2095076;28;20121;-83
2021/04/28 03:51:29;;;;;;;8.45;6.70;;;;;;;0.13;83.36;91846.31;2087192;28;20028;-84
2021/04/28 03:52:30;;;;;;;9.15;7.05;;;;;;;0.14;83.10;91849.69;2101937;28;20038;-82
2021/04/28 03:53:30;;;;;;;8.70;7.53;;;;;;;0.08;82.73;91846.69;2109444;28;20112;-82
2021/04/28 03:54:31;;;;;;;9.38;7.53;;;;;;;0.04;83.32;91851.19;2111453;28;20019;-82
2021/04/28 03:55:32;;;;;;;10.35;8.25;;;;;;;0.07;84.08;91849.69;2109064;28;20724;-84
2021/04/28 03:56:33;;;;;;;9.30;7.60;;;;;;;0.08;82.83;91848.56;2111853;28;20019;-82
2021/04/28 03:57:34;;;;;;;8.43;7.50;;;;;;;0.06;83.54;91858.72;2108601;28;20016;-82
2021/04/28 03:58:34;;;;;;;10.15;7.47;;;;;;;0.08;83.73;91854.56;2112495;28;20031;-83
2021/04/28 03:59:35;;;;;;;8.63;7.72;;;;;;;0.07;84.26;91853.06;2111323;28;20019;-82
2021/04/28 04:00:36;;;;;;;13.52;7.93;;;;;;;0.09;83.27;91856.06;2101977;28;20069;-82
2021/04/28 04:01:37;;;;;;;10.73;7.55;;;;;;;0.09;83.10;91842.94;2099850;28;20028;-82
2021/04/28 04:02:38;;;;;;;8.70;7.47;;;;;;;0.08;83.48;91851.19;2112853;27;20027;-83
2021/04/28 04:03:39;;;;;;;8.40;7.03;;;;;;;0.06;83.32;91848.94;2101893;28;20025;-83
2021/04/28 04:04:39;;;;;;;10.95;7.50;;;;;;;-0.01;83.74;91847.06;2090928;28;20099;-82
2021/04/28 04:05:40;;;;;;;9.70;7.63;;;;;;;0.00;83.94;91847.84;2097872;28;20107;-83
2021/04/28 04:06:41;;;;;;;11.43;7.10;;;;;;;0.06;83.21;91853.47;2099066;28;20024;-82
2021/04/28 04:07:42;;;;;;;8.43;7.47;;;;;;;0.06;84.39;91845.56;2102631;28;20031;-82
2021/04/28 04:08:42;;;;;;;9.90;7.75;;;;;;;0.07;83.94;91847.81;2102263;28;20024;-82
2021/04/28 04:09:43;;;;;;;11.80;8.00;;;;;;;0.09;84.18;91850.03;2102848;28;20455;-83
2021/04/28 04:10:44;;;;;;;12.23;7.57;;;;;;;0.12;84.50;91849.28;2102885;28;20490;-83
2021/04/28 04:11:45;;;;;;;7.93;7.05;;;;;;;0.14;84.08;91853.06;2102106;28;20028;-82
2021/04/28 04:12:45;;;;;;;14.10;7.75;;;;;;;0.12;83.76;91851.91;2096690;28;20020;-82
2021/04/28 04:13:46;;;;;;;11.48;7.93;;;;;;;0.09;83.59;91850.03;2090701;28;20095;-82
2021/04/28 04:14:47;;;;;;;17.27;13.77;;;;;;;0.09;83.47;91857.94;2084287;28;20021;-82
2021/04/28 04:15:47;;;;;;;21.13;14.88;;;;;;;0.04;83.54;91853.06;2104992;28;20020;-82
2021/04/28 04:16:48;;;;;;;24.50;16.65;;;;;;;0.07;84.10;91850.44;2114301;28;20412;-83
2021/04/28 04:17:49;;;;;;;18.75;11.18;;;;;;;0.06;83.95;91853.47;2097456;28;20106;-82
2021/04/28 04:18:49;;;;;;;20.15;13.15;;;;;;;0.02;84.22;91847.47;2097079;28;20035;-82
2021/04/28 04:19:52;;;;;;;73.95;40.80;;;;;;;0.02;84.74;91848.22;2097670;28;20032;-83
2021/04/28 04:20:52;;;;;;;61.45;34.15;;;;;;;0.05;84.52;91847.47;2073255;28;20449;-82
2021/04/28 04:21:53;;;;;;;50.85;29.25;;;;;;;0.04;85.66;91850.44;2089391;28;20029;-83
2021/04/28 04:22:54;;;;;;;58.65;32.88;;;;;;;0.11;84.61;91850.44;2097717;28;20020;-83
2021/04/28 04:23:54;;;;;;;32.03;18.63;;;;;;;0.12;84.75;91851.91;2100846;28;20021;-82
2021/04/28 04:24:55;;;;;;;36.05;23.08;;;;;;;0.12;84.22;91849.28;2097078;28;20027;-83
2021/04/28 04:25:56;;;;;;;22.02;14.23;;;;;;;0.12;84.50;91849.28;2102774;28;20107;-82
2021/04/28 04:26:57;;;;;;;14.00;11.05;;;;;;;0.15;84.45;91857.16;2089461;28;20115;-83
2021/04/28 04:27:57;;;;;;;16.73;11.57;;;;;;;0.10;83.61;91854.19;2095404;28;20031;-84
2021/04/28 04:29:01;;;;;;;13.63;10.75;;;;;;;0.09;84.23;91856.06;2098605;28;20020;-85
2021/04/28 04:30:06;;;;;;;13.23;9.50;;;;;;;0.05;83.99;91852.72;2096486;28;20025;-85
2021/04/28 04:31:06;;;;;;;12.45;9.48;;;;;;;0.06;84.40;91853.47;2084079;28;20021;-85
2021/04/28 04:32:07;;;;;;;14.43;8.55;;;;;;;0.03;84.16;91851.59;2086842;28;20087;-85
2021/04/28 04:33:10;;;;;;;15.65;9.63;;;;;;;0.06;84.23;91856.81;2097702;28;20028;-84
2021/04/28 04:34:10;;;;;;;12.38;8.60;;;;;;;-0.02;84.36;91858.72;2094595;28;20389;-85
2021/04/28 04:35:11;;;;;;;13.20;8.63;;;;;;;0.00;84.17;91853.09;2102949;28;20143;-86
2021/04/28 04:36:12;;;;;;;12.45;9.15;;;;;;;-0.01;84.55;91854.22;2114224;28;20027;-83
2021/04/28 04:37:13;;;;;;;9.85;8.70;;;;;;;0.05;84.49;91860.59;2097553;28;20074;-84
2021/04/28 04:38:16;;;;;;;12.40;9.68;;;;;;;0.06;84.67;91861.34;2094619;28;20036;-84
2021/04/28 04:39:16;;;;;;;11.30;9.23;;;;;;;0.09;85.32;91858.69;2096760;28;20066;-84
2021/04/28 04:40:17;;;;;;;12.00;9.48;;;;;;;0.04;84.65;91864.31;2104897;28;20020;-85
2021/04/28 04:41:18;;;;;;;10.77;8.80;;;;;;;0.08;83.89;91861.69;2093886;28;20399;-85
2021/04/28 04:42:19;;;;;;;11.32;8.68;;;;;;;0.08;84.38;91859.06;2085582;28;20032;-83
2021/04/28 04:43:19;;;;;;;10.85;8.23;;;;;;;0.12;84.85;91852.66;2096896;28;20025;-85
2021/04/28 04:44:20;;;;;;;9.75;8.55;;;;;;;0.15;84.93;91859.06;2097038;28;20055;-86
2021/04/28 04:45:21;;;;;;;14.93;9.10;;;;;;;0.24;84.33;91859.41;2089384;28;20710;-85
2021/04/28 04:46:21;;;;;;;11.68;8.77;;;;;;;0.20;84.13;91861.28;2081202;28;20032;-84
2021/04/28 04:47:22;;;;;;;10.80;8.80;;;;;;;0.18;84.22;91858.31;2098631;28;20445;-86
2021/04/28 04:48:23;;;;;;;11.55;8.30;;;;;;;0.16;83.84;91856.03;2121289;27;20022;-83
2021/04/28 04:49:23;;;;;;;10.27;8.98;;;;;;;0.21;84.97;91857.53;2110087;28;20028;-85
2021/04/28 04:50:24;;;;;;;9.82;8.15;;;;;;;0.22;85.37;91848.50;2101570;28;20824;-87
2021/04/28 04:51:25;;;;;;;10.95;8.20;;;;;;;0.20;85.33;91848.16;2084240;28;20029;-87
2021/04/28 04:52:26;;;;;;;15.35;8.23;;;;;;;0.24;85.31;91851.50;2086865;28;20062;-86
2021/04/28 04:53:26;;;;;;;11.07;8.25;;;;;;;0.33;85.26;91859.72;2081633;28;20402;-87